Time;durP1;ratioP1;P1;durP2;ratioP2;P2;SDS_P1;SDS_P2;PMS_P1;PMS_P2;Temp;Humidity;BMP_temperature;BMP_pressure;BME280_temperature;BME280_humidity;BME280_pressure;Samples;Min_cycle;Max_cycle;Signal;HPM_P1;HPM_P2
2024/02/22 00:00:52;;;;;;;27.75;16.15;;;;;;;7.31;100.00;101147.88;4992353;28;20030;-69
2024/02/22 00:03:18;;;;;;;25.30;16.35;;;;;;;7.26;100.00;101148.50;4987714;28;20038;-67
2024/02/22 00:05:44;;;;;;;29.17;16.52;;;;;;;6.83;100.00;101067.94;4992044;28;20041;-71
2024/02/22 00:08:10;;;;;;;29.02;17.25;;;;;;;7.24;100.00;101150.09;4991777;28;20469;-68
2024/02/22 00:10:35;;;;;;;29.17;17.83;;;;;;;7.11;100.00;101142.41;4992328;28;20022;-68
2024/02/22 00:13:01;;;;;;;31.88;19.10;;;;;;;7.02;100.00;101137.59;4991715;28;20034;-68
2024/02/22 00:15:26;;;;;;;28.60;17.05;;;;;;;6.99;100.00;101133.94;4992133;28;20125;-71
2024/02/22 00:17:52;;;;;;;27.40;18.55;;;;;;;7.06;100.00;101148.94;4991316;28;20057;-67
2024/02/22 00:20:18;;;;;;;28.48;17.65;;;;;;;7.08;100.00;101139.66;4991848;28;20035;-68
2024/02/22 00:22:46;;;;;;;25.92;16.63;;;;;;;7.09;100.00;101136.28;4990990;28;20038;-67
2024/02/22 00:25:13;;;;;;;28.25;17.80;;;;;;;7.03;100.00;101108.56;4991640;28;20030;-67
2024/02/22 00:27:40;;;;;;;27.70;17.15;;;;;;;6.89;100.00;101120.56;4991629;28;20035;-67
2024/02/22 00:30:14;;;;;;;32.50;15.48;;;;;;;6.54;100.00;101111.53;4992544;28;20065;-68
2024/02/22 00:32:42;;;;;;;26.85;16.77;;;;;;;6.28;100.00;101108.19;4991798;28;20034;-69
2024/02/22 00:35:08;;;;;;;29.20;16.92;;;;;;;6.14;100.00;101088.44;4991356;28;20089;-68
2024/02/22 00:37:35;;;;;;;32.50;18.65;;;;;;;6.34;100.00;101099.97;4990963;28;20026;-67
2024/02/22 00:40:03;;;;;;;28.23;18.23;;;;;;;6.51;100.00;101113.00;4991502;28;20027;-69
2024/02/22 00:42:32;;;;;;;28.73;17.23;;;;;;;6.54;100.00;101098.72;4991217;28;20046;-68
2024/02/22 00:44:58;;;;;;;28.07;17.63;;;;;;;6.61;100.00;101110.22;4990137;28;20116;-68
2024/02/22 00:47:24;;;;;;;29.92;17.25;;;;;;;6.61;100.00;101110.22;4991279;28;20471;-67
2024/02/22 00:49:49;;;;;;;29.83;18.13;;;;;;;6.61;100.00;101100.84;4979601;28;20039;-68
2024/02/22 00:52:15;;;;;;;26.65;16.83;;;;;;;6.61;100.00;101098.28;4990760;28;20038;-68
2024/02/22 00:54:41;;;;;;;26.63;16.67;;;;;;;6.29;100.00;101030.47;4991712;28;20387;-68
2024/02/22 00:57:07;;;;;;;28.23;16.92;;;;;;;6.71;100.00;101086.91;4990535;28;20552;-68
2024/02/22 00:59:33;;;;;;;27.98;16.77;;;;;;;6.81;100.00;101108.91;4958816;28;20038;-68
2024/02/22 01:01:59;;;;;;;24.30;16.15;;;;;;;6.80;100.00;101090.06;4990764;28;20473;-69
2024/02/22 01:04:26;;;;;;;25.77;16.40;;;;;;;6.78;100.00;101104.47;4990572;28;20398;-70
2024/02/22 01:06:52;;;;;;;30.30;15.88;;;;;;;6.64;100.00;101101.06;4990319;28;20045;-69
2024/02/22 01:09:18;;;;;;;28.40;16.50;;;;;;;6.42;100.00;101082.53;4990899;28;20041;-72
2024/02/22 01:11:44;;;;;;;26.70;17.20;;;;;;;6.02;100.00;101036.38;4957741;28;20046;-69
2024/02/22 01:14:10;;;;;;;30.17;18.63;;;;;;;6.22;100.00;101097.53;4991054;28;20114;-69
2024/02/22 01:16:36;;;;;;;30.30;18.15;;;;;;;6.08;100.00;101090.59;4990738;28;20125;-68
2024/02/22 01:19:01;;;;;;;28.17;19.08;;;;;;;6.04;100.00;101098.88;4990681;28;20091;-69
2024/02/22 01:21:27;;;;;;;31.08;18.05;;;;;;;6.06;100.00;101092.19;4990220;28;20387;-69
2024/02/22 01:23:52;;;;;;;29.35;17.23;;;;;;;6.15;100.00;101088.53;4990513;28;20034;-70
2024/02/22 01:26:19;;;;;;;27.27;16.90;;;;;;;6.20;100.00;101088.84;4990199;28;20037;-67
2024/02/22 01:28:44;;;;;;;26.00;17.20;;;;;;;6.23;100.00;101085.56;4990604;28;20069;-69
2024/02/22 01:31:10;;;;;;;29.77;16.73;;;;;;;6.25;100.00;101081.44;4990077;28;20046;-70
2024/02/22 01:33:37;;;;;;;25.58;16.60;;;;;;;5.75;100.00;101031.22;4975730;28;20061;-69
2024/02/22 01:36:03;;;;;;;29.13;17.00;;;;;;;5.98;100.00;101073.69;4989990;28;20050;-68
2024/02/22 01:38:28;;;;;;;28.77;16.60;;;;;;;5.93;100.00;101075.06;4979136;28;20053;-69
2024/02/22 01:40:54;;;;;;;29.50;16.80;;;;;;;5.98;100.00;101069.50;4990098;28;20045;-72
2024/02/22 01:43:20;;;;;;;29.40;17.35;;;;;;;5.98;100.00;101058.31;4990341;28;20089;-70
2024/02/22 01:45:45;;;;;;;29.25;18.02;;;;;;;6.18;100.00;101069.03;4990599;28;20038;-69
2024/02/22 01:48:11;;;;;;;29.13;17.80;;;;;;;5.73;100.00;100981.53;4990171;28;20030;-69
2024/02/22 01:50:40;;;;;;;34.88;16.80;;;;;;;6.10;100.00;101071.09;4989599;28;20113;-70
2024/02/22 01:53:06;;;;;;;30.25;16.77;;;;;;;5.17;100.00;100924.16;4989894;28;20030;-72
2024/02/22 01:55:32;;;;;;;26.25;16.02;;;;;;;5.94;100.00;101076.84;4990031;28;20034;-69
2024/02/22 01:57:57;;;;;;;28.73;17.55;;;;;;;5.80;100.00;101068.28;4989775;28;20041;-67
2024/02/22 02:00:23;;;;;;;30.35;18.00;;;;;;;5.63;100.00;101083.41;4989893;28;20088;-68
2024/02/22 02:02:52;;;;;;;27.33;16.98;;;;;;;5.53;100.00;101075.88;4937850;28;20109;-70
2024/02/22 02:05:18;;;;;;;27.27;16.90;;;;;;;5.51;100.00;101080.03;4988570;28;20069;-68
2024/02/22 02:07:44;;;;;;;27.85;16.95;;;;;;;5.16;100.00;101047.81;4990003;28;20535;-68
2024/02/22 02:10:10;;;;;;;28.77;17.38;;;;;;;4.95;100.00;101073.72;4984893;28;20034;-68
2024/02/22 02:12:37;;;;;;;24.33;16.52;;;;;;;4.82;100.00;101064.31;4989828;28;20022;-71
2024/02/22 02:15:04;;;;;;;27.13;16.77;;;;;;;4.79;100.00;101056.41;4986069;28;20730;-68
2024/02/22 02:17:29;;;;;;;30.98;17.70;;;;;;;4.87;100.00;101072.28;4989368;28;20133;-68
2024/02/22 02:19:56;;;;;;;26.77;17.35;;;;;;;4.92;100.00;101076.06;4990702;28;20134;-68
2024/02/22 02:22:38;;;;;;;25.35;15.40;;;;;;;4.77;100.00;101031.50;4989883;28;20077;-69
2024/02/22 02:25:04;;;;;;;25.90;15.93;;;;;;;4.60;100.00;100984.28;4989511;28;20046;-68
2024/02/22 02:27:31;;;;;;;28.00;17.38;;;;;;;4.59;100.00;100985.97;4991627;28;20471;-69
2024/02/22 02:29:56;;;;;;;27.25;16.88;;;;;;;4.99;100.00;101055.22;4989429;28;20038;-70
2024/02/22 02:32:22;;;;;;;27.13;16.75;;;;;;;5.01;100.00;101051.09;4993629;28;20483;-70
2024/02/22 02:34:47;;;;;;;31.13;18.25;;;;;;;5.04;100.00;101044.44;4993395;28;20026;-68
2024/02/22 02:37:13;;;;;;;29.77;18.10;;;;;;;4.71;100.00;101021.75;4993647;28;20030;-68
2024/02/22 02:39:39;;;;;;;28.80;17.42;;;;;;;4.95;100.00;101049.81;4993598;28;20053;-69
2024/02/22 02:42:05;;;;;;;28.73;17.80;;;;;;;5.06;100.00;101045.41;4968840;28;20112;-68
2024/02/22 02:44:31;;;;;;;24.75;15.90;;;;;;;5.00;100.00;101057.00;4986297;28;20399;-69
2024/02/22 02:46:57;;;;;;;28.67;17.50;;;;;;;5.07;100.00;101053.22;4993316;28;20037;-69
2024/02/22 02:49:22;;;;;;;29.42;17.73;;;;;;;5.09;100.00;101046.50;4993754;28;20034;-69
2024/02/22 02:51:48;;;;;;;28.25;17.33;;;;;;;4.89;100.00;101018.69;4992837;28;20038;-70
2024/02/22 02:54:14;;;;;;;29.35;16.63;;;;;;;5.02;100.00;101057.09;4994342;28;20065;-69
2024/02/22 02:56:40;;;;;;;24.92;15.35;;;;;;;5.05;100.00;101053.84;4993016;28;20034;-69
2024/02/22 02:59:05;;;;;;;25.15;15.27;;;;;;;5.00;100.00;101039.09;4993188;28;20387;-71
2024/02/22 03:01:31;;;;;;;24.77;15.65;;;;;;;5.17;100.00;101049.56;4992723;28;20423;-68
2024/02/22 03:03:58;;;;;;;28.52;16.15;;;;;;;4.98;100.00;101020.16;4993330;28;20030;-69
2024/02/22 03:06:23;;;;;;;30.40;16.55;;;;;;;5.17;100.00;101058.16;4992985;28;20042;-70
2024/02/22 03:08:49;;;;;;;26.65;16.77;;;;;;;5.16;100.00;101037.59;4993504;28;20030;-69
2024/02/22 03:11:15;;;;;;;27.77;16.58;;;;;;;5.15;100.00;101051.16;4992836;28;20390;-69
2024/02/22 03:13:40;;;;;;;25.90;16.77;;;;;;;5.05;100.00;101056.41;4992898;28;20395;-68
2024/02/22 03:16:07;;;;;;;26.52;16.17;;;;;;;5.01;100.00;101058.78;4993210;28;20425;-69
2024/02/22 03:18:35;;;;;;;27.70;16.48;;;;;;;4.95;100.00;101060.91;4993321;28;20137;-69
2024/02/22 03:21:01;;;;;;;30.27;18.08;;;;;;;4.88;100.00;101066.38;4992808;28;20172;-69
2024/02/22 03:23:28;;;;;;;26.95;16.48;;;;;;;4.72;100.00;101055.88;4992832;28;20129;-69
2024/02/22 03:25:54;;;;;;;26.92;15.85;;;;;;;4.52;100.00;101045.13;4992721;28;20120;-68
2024/02/22 03:28:21;;;;;;;26.38;15.93;;;;;;;4.48;100.00;101040.59;4992427;28;20030;-70
2024/02/22 03:30:46;;;;;;;26.50;16.80;;;;;;;4.66;100.00;101056.31;4993268;28;20030;-70
2024/02/22 03:33:13;;;;;;;28.40;17.60;;;;;;;4.54;100.00;101031.66;4992912;28;20513;-69
2024/02/22 03:35:39;;;;;;;26.90;15.75;;;;;;;4.72;100.00;101061.00;4999703;28;20030;-70
2024/02/22 03:38:05;;;;;;;28.35;17.30;;;;;;;4.66;100.00;101062.34;4992892;28;20045;-70
2024/02/22 03:40:31;;;;;;;28.33;16.52;;;;;;;4.53;100.00;101064.81;4992975;28;20037;-69
2024/02/22 03:42:57;;;;;;;25.70;16.55;;;;;;;4.48;100.00;101048.25;4992815;28;20387;-70
2024/02/22 03:45:23;;;;;;;24.50;16.20;;;;;;;4.56;100.00;101059.91;4992810;28;20030;-70
2024/02/22 03:47:49;;;;;;;29.98;17.38;;;;;;;4.56;100.00;101067.59;4992486;28;20077;-70
2024/02/22 03:50:15;;;;;;;28.65;16.35;;;;;;;4.45;100.00;101074.50;4993200;28;20497;-68
2024/02/22 03:52:41;;;;;;;27.80;16.27;;;;;;;4.33;100.00;101076.16;4992704;28;20034;-69
2024/02/22 03:55:08;;;;;;;26.88;15.88;;;;;;;4.31;100.00;101070.03;4992679;28;20497;-69
2024/02/22 03:57:34;;;;;;;30.48;16.30;;;;;;;3.83;100.00;101011.28;4992293;28;20026;-70
2024/02/22 03:59:59;;;;;;;35.33;17.60;;;;;;;3.55;100.00;100983.75;4992198;28;20418;-69
2024/02/22 04:02:25;;;;;;;35.05;17.15;;;;;;;4.03;100.00;101076.59;4993191;28;20023;-69
2024/02/22 04:04:52;;;;;;;35.40;18.75;;;;;;;4.14;100.00;101076.53;4992138;28;20057;-69
2024/02/22 04:07:17;;;;;;;29.25;16.98;;;;;;;4.18;100.00;101083.63;4992419;28;20031;-70
2024/02/22 04:09:44;;;;;;;36.03;18.77;;;;;;;4.00;100.00;101050.84;4992524;28;20041;-69
2024/02/22 04:12:10;;;;;;;91.68;19.27;;;;;;;4.24;100.00;101084.06;4991931;28;20038;-69
2024/02/22 04:14:35;;;;;;;56.75;18.90;;;;;;;4.19;100.00;101085.41;4992197;28;20094;-70
2024/02/22 04:17:01;;;;;;;68.47;17.40;;;;;;;3.60;100.00;101001.97;4992788;28;20054;-71
2024/02/22 04:19:26;;;;;;;34.22;15.85;;;;;;;3.71;100.00;101079.34;4992252;28;20050;-68
2024/02/22 04:21:52;;;;;;;61.28;16.55;;;;;;;3.45;100.00;101077.41;4991813;28;20121;-69
2024/02/22 04:24:17;;;;;;;101.00;18.17;;;;;;;3.43;100.00;101090.06;4991911;28;20486;-69
2024/02/22 04:26:54;;;;;;;134.75;19.65;;;;;;;3.51;100.00;101082.97;4991522;28;20034;-70
2024/02/22 04:29:20;;;;;;;113.90;19.25;;;;;;;3.33;100.00;101090.13;4991914;28;20040;-70
2024/02/22 04:31:46;;;;;;;171.55;19.40;;;;;;;3.11;100.00;101083.38;4991723;28;20034;-72
2024/02/22 04:34:12;;;;;;;75.60;17.88;;;;;;;3.17;100.00;101075.31;4991708;28;20045;-69
2024/02/22 04:36:40;;;;;;;56.17;17.88;;;;;;;3.22;100.00;101077.44;4992137;28;20023;-70
2024/02/22 04:39:09;;;;;;;55.40;18.02;;;;;;;3.16;100.00;101042.91;4992408;28;20034;-69
2024/02/22 04:41:35;;;;;;;122.20;19.98;;;;;;;3.42;100.00;101067.84;4991620;28;20062;-70
2024/02/22 04:44:02;;;;;;;108.80;19.00;;;;;;;3.45;100.00;101073.19;4981595;28;20038;-70
2024/02/22 04:46:27;;;;;;;137.20;19.80;;;;;;;3.37;100.00;101059.84;4991752;28;20031;-69
2024/02/22 04:48:53;;;;;;;68.28;18.80;;;;;;;3.53;100.00;101071.22;4991629;28;20034;-69
2024/02/22 04:51:40;;;;;;;45.25;19.20;;;;;;;3.63;100.00;101066.00;4980950;28;20037;-69
2024/02/22 04:54:05;;;;;;;83.95;21.08;;;;;;;3.34;100.00;101008.59;4930407;29;20051;-70
2024/02/22 04:56:31;;;;;;;73.45;19.20;;;;;;;3.65;100.00;101051.72;4923985;29;20046;-68
2024/02/22 04:58:57;;;;;;;95.13;20.52;;;;;;;3.57;100.00;101032.38;4937486;29;20040;-69
2024/02/22 05:01:24;;;;;;;83.22;20.67;;;;;;;3.61;100.00;101039.47;4939430;29;20725;-69
2024/02/22 05:03:49;;;;;;;60.78;21.13;;;;;;;3.69;100.00;101068.16;4933257;29;20043;-69
2024/02/22 05:06:15;;;;;;;91.40;21.98;;;;;;;3.56;100.00;101077.44;4941904;29;20474;-69
2024/02/22 05:08:41;;;;;;;45.08;19.23;;;;;;;3.55;100.00;101079.84;4939778;29;20047;-69
2024/02/22 05:11:07;;;;;;;70.38;19.88;;;;;;;3.52;100.00;101084.75;4946623;29;20062;-71
2024/02/22 05:13:33;;;;;;;43.17;18.48;;;;;;;3.38;100.00;101070.97;4940443;29;20047;-69
2024/02/22 05:15:59;;;;;;;80.60;20.85;;;;;;;3.42;100.00;101075.50;4941410;29;20570;-69
2024/02/22 05:18:24;;;;;;;51.00;20.40;;;;;;;3.47;100.00;101080.97;4944584;29;20113;-71
2024/02/22 05:20:51;;;;;;;44.50;19.73;;;;;;;3.44;100.00;101079.06;4941984;29;20051;-73
2024/02/22 05:23:16;;;;;;;45.42;21.25;;;;;;;3.48;100.00;101083.63;4943074;29;20064;-70
2024/02/22 05:25:42;;;;;;;42.20;23.30;;;;;;;3.26;100.00;101086.22;4980140;28;20082;-68
2024/02/22 05:28:10;;;;;;;49.42;23.27;;;;;;;3.23;100.00;101097.06;4990626;28;20049;-69
2024/02/22 05:30:36;;;;;;;48.70;22.92;;;;;;;3.21;100.00;101090.94;4990730;28;20030;-69
2024/02/22 05:33:02;;;;;;;55.95;23.75;;;;;;;3.08;100.00;101081.47;4962687;28;20093;-69
2024/02/22 05:35:27;;;;;;;53.15;21.10;;;;;;;3.16;100.00;101093.94;4989375;28;20409;-70
2024/02/22 05:37:53;;;;;;;48.00;21.27;;;;;;;3.12;100.00;101095.38;4981026;28;20031;-71
2024/02/22 05:40:18;;;;;;;46.47;20.27;;;;;;;3.13;100.00;101092.06;4990414;28;20030;-69
2024/02/22 05:42:44;;;;;;;46.10;21.48;;;;;;;2.87;100.00;101069.63;4990456;28;20430;-69
2024/02/22 05:45:10;;;;;;;50.15;21.08;;;;;;;2.70;100.00;101048.78;4986439;28;20030;-73
2024/02/22 05:47:35;;;;;;;68.90;21.20;;;;;;;2.99;100.00;101098.66;4990917;28;20125;-70
2024/02/22 05:50:03;;;;;;;46.22;21.27;;;;;;;2.98;100.00;101099.41;4990701;28;20043;-72
2024/02/22 05:52:29;;;;;;;59.72;23.52;;;;;;;2.94;100.00;101089.75;4990635;28;20038;-69
2024/02/22 05:54:55;;;;;;;52.08;22.02;;;;;;;2.94;100.00;101097.41;4990558;28;20077;-69
2024/02/22 05:57:21;;;;;;;43.03;23.75;;;;;;;2.91;100.00;101109.91;4991141;28;20117;-68
2024/02/22 05:59:46;;;;;;;50.47;23.65;;;;;;;2.92;100.00;101104.03;4990338;28;20109;-70
2024/02/22 06:02:12;;;;;;;51.53;23.63;;;;;;;2.99;100.00;101105.38;4989582;28;20173;-69
2024/02/22 06:04:37;;;;;;;45.08;23.45;;;;;;;3.05;100.00;101109.31;4990090;28;20034;-69
2024/02/22 06:07:03;;;;;;;55.17;25.17;;;;;;;3.10;100.00;101107.09;4990378;28;20034;-68
2024/02/22 06:09:30;;;;;;;46.45;24.48;;;;;;;3.13;100.00;101107.34;4990436;28;20078;-69
2024/02/22 06:11:55;;;;;;;43.28;23.88;;;;;;;3.23;100.00;101111.50;4990538;28;20069;-69
2024/02/22 06:14:21;;;;;;;50.20;26.60;;;;;;;3.16;100.00;101119.47;4979191;28;20112;-70
2024/02/22 06:16:46;;;;;;;49.65;26.75;;;;;;;3.17;100.00;101118.69;4990735;28;20090;-70
2024/02/22 06:19:12;;;;;;;44.15;25.27;;;;;;;3.32;100.00;101113.88;4989929;28;20113;-69
2024/02/22 06:21:38;;;;;;;46.10;23.58;;;;;;;3.36;100.00;101111.66;4990093;28;20426;-69
2024/02/22 06:24:03;;;;;;;39.83;25.27;;;;;;;3.32;100.00;101107.09;4990199;28;20037;-72
2024/02/22 06:26:33;;;;;;;41.47;25.50;;;;;;;3.38;100.00;101117.78;4990122;28;20031;-70
2024/02/22 06:28:58;;;;;;;42.35;25.45;;;;;;;3.49;100.00;101130.44;4990086;28;20030;-69
2024/02/22 06:31:24;;;;;;;45.22;28.17;;;;;;;3.55;100.00;101123.25;4990138;28;20033;-70
2024/02/22 06:33:52;;;;;;;41.88;25.92;;;;;;;3.57;100.00;101124.28;4981929;28;20038;-68
2024/02/22 06:36:19;;;;;;;41.65;26.30;;;;;;;3.45;100.00;101101.28;4981044;28;20037;-70
2024/02/22 06:38:48;;;;;;;42.75;27.42;;;;;;;3.70;100.00;101119.31;4990079;28;20034;-70
2024/02/22 06:41:15;;;;;;;44.72;28.50;;;;;;;3.80;100.00;101114.88;4953925;28;20039;-73
2024/02/22 06:43:41;;;;;;;43.38;26.92;;;;;;;3.89;100.00;101120.69;4989906;28;20138;-69
2024/02/22 06:46:06;;;;;;;44.78;27.17;;;;;;;3.97;100.00;101109.38;4990207;28;20113;-70
2024/02/22 06:48:32;;;;;;;45.80;27.90;;;;;;;4.17;100.00;101118.50;4989583;28;20038;-69
2024/02/22 06:50:59;;;;;;;42.97;26.73;;;;;;;4.38;100.00;101121.72;4990020;28;20034;-73
2024/02/22 06:53:24;;;;;;;49.97;29.90;;;;;;;4.32;100.00;101079.50;4990686;28;20046;-69
2024/02/22 06:55:50;;;;;;;46.40;28.23;;;;;;;4.66;100.00;101112.59;4989652;28;20100;-70
2024/02/22 06:58:16;;;;;;;43.85;27.40;;;;;;;4.80;100.00;101116.13;4989826;28;20030;-70
2024/02/22 07:00:41;;;;;;;47.80;28.23;;;;;;;4.91;100.00;101099.88;4989917;28;20073;-73
2024/02/22 07:03:07;;;;;;;43.60;27.80;;;;;;;5.21;100.00;101114.66;4989701;28;20512;-69
2024/02/22 07:05:32;;;;;;;45.20;28.10;;;;;;;5.37;100.00;101112.41;4990006;28;20050;-71
2024/02/22 07:07:58;;;;;;;44.72;27.80;;;;;;;5.50;100.00;101114.13;4990036;28;20034;-70
2024/02/22 07:10:24;;;;;;;44.22;28.30;;;;;;;5.61;100.00;101113.16;4989632;28;20085;-70
2024/02/22 07:12:49;;;;;;;43.92;27.52;;;;;;;5.79;100.00;101116.06;4991290;28;20038;-70
2024/02/22 07:15:16;;;;;;;46.67;29.02;;;;;;;4.96;100.00;100967.13;4993239;28;20066;-70
2024/02/22 07:17:42;;;;;;;43.80;27.77;;;;;;;5.96;100.00;101109.50;4993052;28;20528;-70
2024/02/22 07:20:08;;;;;;;45.33;30.10;;;;;;;6.09;100.00;101113.81;4993167;28;20061;-70
2024/02/22 07:22:33;;;;;;;43.40;27.58;;;;;;;6.25;100.00;101101.97;4992895;28;20038;-71
2024/02/22 07:24:59;;;;;;;44.70;28.10;;;;;;;6.41;100.00;101112.41;4993938;28;20061;-69
2024/02/22 07:27:25;;;;;;;44.25;28.10;;;;;;;6.58;100.00;101123.75;4992959;28;20038;-70
2024/02/22 07:29:51;;;;;;;46.83;28.08;;;;;;;6.62;100.00;101092.34;4992684;28;20042;-71
2024/02/22 07:32:16;;;;;;;43.97;28.83;;;;;;;6.59;100.00;101070.75;4992841;28;20030;-70
2024/02/22 07:34:42;;;;;;;43.65;27.70;;;;;;;6.45;100.00;101036.53;4992430;28;20042;-69
2024/02/22 07:37:08;;;;;;;42.25;26.27;;;;;;;6.94;100.00;101084.88;4993166;28;20042;-70
2024/02/22 07:39:34;;;;;;;41.38;26.50;;;;;;;7.11;100.00;101109.03;4968458;28;20042;-70
2024/02/22 07:41:59;;;;;;;40.80;25.98;;;;;;;7.34;100.00;101119.81;4993029;28;20430;-70
2024/02/22 07:44:26;;;;;;;39.30;24.92;;;;;;;6.98;100.00;101030.38;4993559;28;20406;-70
2024/02/22 07:46:52;;;;;;;43.10;26.17;;;;;;;7.50;100.00;101119.06;4993179;28;20034;-70
2024/02/22 07:49:18;;;;;;;38.25;25.80;;;;;;;7.68;100.00;101117.59;4992735;28;20026;-70
2024/02/22 07:51:43;;;;;;;39.60;25.73;;;;;;;7.43;100.00;101036.47;4992701;28;20049;-70
2024/02/22 07:54:08;;;;;;;40.83;25.70;;;;;;;7.80;100.00;101103.66;4993040;28;20030;-68
2024/02/22 07:56:40;;;;;;;37.13;24.75;;;;;;;8.05;100.00;101100.81;4993010;28;20034;-69
2024/02/22 07:59:08;;;;;;;37.85;24.70;;;;;;;8.07;100.00;101102.72;4992388;28;20034;-73
2024/02/22 08:01:34;;;;;;;36.25;24.58;;;;;;;7.97;100.00;101063.53;4991582;28;20112;-70
2024/02/22 08:04:00;;;;;;;38.50;24.67;;;;;;;7.71;100.00;101008.94;4991529;28;20125;-71
2024/02/22 08:06:26;;;;;;;32.83;21.85;;;;;;;8.34;100.00;101107.63;4992189;28;20058;-71
2024/02/22 08:08:52;;;;;;;35.42;22.45;;;;;;;8.46;100.00;101098.81;4992774;28;20034;-69
2024/02/22 08:11:17;;;;;;;34.83;23.13;;;;;;;8.41;100.00;101096.88;4992328;28;20035;-70
2024/02/22 08:13:44;;;;;;;33.58;22.88;;;;;;;8.49;100.00;101092.19;4992487;28;20133;-69
2024/02/22 08:16:10;;;;;;;34.97;22.08;;;;;;;8.54;100.00;101100.19;4993169;28;20030;-69
2024/02/22 08:18:37;;;;;;;32.88;21.67;;;;;;;8.56;100.00;101095.97;4992062;28;20518;-70
2024/02/22 08:21:03;;;;;;;36.90;22.85;;;;;;;8.67;100.00;101101.72;4992421;28;20423;-69
2024/02/22 08:23:29;;;;;;;31.83;21.15;;;;;;;8.76;100.00;101094.53;4991827;28;20042;-70
2024/02/22 08:25:58;;;;;;;29.55;20.00;;;;;;;8.74;100.00;101078.09;4991213;28;20040;-70
2024/02/22 08:28:24;;;;;;;31.77;22.17;;;;;;;8.87;100.00;101087.34;4992385;28;20031;-70
2024/02/22 08:30:51;;;;;;;29.17;19.52;;;;;;;9.06;100.00;101090.13;4991850;28;20030;-70
2024/02/22 08:33:17;;;;;;;33.17;20.50;;;;;;;9.06;100.00;101077.25;4992724;28;20026;-69
2024/02/22 08:35:42;;;;;;;29.40;20.13;;;;;;;9.15;100.00;101074.25;4991898;28;20037;-68
2024/02/22 08:38:09;;;;;;;29.88;19.65;;;;;;;9.27;100.00;101080.88;4987429;28;20054;-70
2024/02/22 08:40:36;;;;;;;26.08;18.45;;;;;;;9.36;100.00;101078.78;4991723;28;20070;-71
2024/02/22 08:43:02;;;;;;;28.02;18.20;;;;;;;9.29;100.00;101094.72;4991520;28;20042;-70
2024/02/22 08:45:28;;;;;;;25.67;16.02;;;;;;;9.42;100.00;101073.03;4983462;28;20065;-71
2024/02/22 08:47:54;;;;;;;21.13;14.85;;;;;;;9.64;100.00;101075.03;4991995;28;20113;-70
2024/02/22 08:50:20;;;;;;;22.15;15.07;;;;;;;9.32;100.00;101009.84;4991625;28;20031;-69
2024/02/22 08:52:47;;;;;;;20.92;13.30;;;;;;;9.24;100.00;100996.56;4991390;28;20049;-71
2024/02/22 08:55:13;;;;;;;20.30;14.52;;;;;;;9.81;100.00;101079.31;4991669;28;20025;-71
2024/02/22 08:57:39;;;;;;;20.17;13.80;;;;;;;9.84;100.00;101063.13;4992202;28;20724;-71
2024/02/22 09:00:06;;;;;;;21.65;14.50;;;;;;;9.70;100.00;101023.75;4991381;28;20042;-72
2024/02/22 09:02:32;;;;;;;24.73;16.30;;;;;;;10.11;100.00;101080.78;4991449;28;20034;-71
2024/02/22 09:04:58;;;;;;;20.00;13.02;;;;;;;10.19;100.00;101072.59;4991480;28;20532;-70
2024/02/22 09:07:24;;;;;;;20.35;14.65;;;;;;;10.12;100.00;101075.69;4991517;28;20117;-70
2024/02/22 09:09:51;;;;;;;22.40;15.38;;;;;;;10.30;100.00;101077.38;4990965;28;20469;-70
2024/02/22 09:12:17;;;;;;;23.17;14.98;;;;;;;10.35;100.00;101078.47;4990869;28;20037;-70
2024/02/22 09:14:43;;;;;;;23.20;15.25;;;;;;;10.48;100.00;101086.03;4991669;28;20084;-70
2024/02/22 09:17:08;;;;;;;23.90;16.20;;;;;;;10.64;100.00;101076.41;4991153;28;20050;-70
2024/02/22 09:19:34;;;;;;;24.50;16.55;;;;;;;10.76;100.00;101082.13;4990651;28;20043;-70
2024/02/22 09:22:00;;;;;;;20.73;15.63;;;;;;;10.72;100.00;101048.38;4990945;28;20029;-70
2024/02/22 09:24:29;;;;;;;21.90;16.58;;;;;;;10.98;100.00;101084.00;4991035;28;20062;-74
2024/02/22 09:26:56;;;;;;;23.50;16.15;;;;;;;11.13;100.00;101072.59;4986676;28;20969;-71
2024/02/22 09:29:22;;;;;;;22.25;15.30;;;;;;;11.21;100.00;101063.47;4991088;28;20038;-70
2024/02/22 09:31:47;;;;;;;21.25;15.48;;;;;;;11.39;100.00;101067.66;4980261;28;20034;-70
2024/02/22 09:34:13;;;;;;;20.63;14.77;;;;;;;11.38;100.00;101051.28;4990662;28;20041;-69
2024/02/22 09:36:40;;;;;;;22.65;15.77;;;;;;;11.16;100.00;100990.03;4961747;28;20073;-70
2024/02/22 09:39:06;;;;;;;21.50;15.32;;;;;;;11.63;100.00;101066.13;4991621;28;20049;-72
2024/02/22 09:41:32;;;;;;;20.98;15.80;;;;;;;11.20;100.00;100975.53;4991092;28;20410;-69
2024/02/22 09:43:58;;;;;;;20.75;15.00;;;;;;;11.78;100.00;101062.44;4990543;28;20034;-70
2024/02/22 09:46:25;;;;;;;22.23;16.13;;;;;;;11.93;100.00;101050.13;4990745;28;20092;-71
2024/02/22 09:48:51;;;;;;;22.88;15.93;;;;;;;11.93;100.00;101038.91;4990533;28;20426;-70
2024/02/22 09:51:18;;;;;;;22.08;14.52;;;;;;;11.77;100.00;100996.84;4990443;28;20041;-70
2024/02/22 09:53:45;;;;;;;21.08;14.95;;;;;;;12.11;100.00;101029.31;4990230;28;20380;-70
2024/02/22 09:56:13;;;;;;;19.27;14.55;;;;;;;12.28;100.00;101037.72;4990548;28;20030;-70
2024/02/22 09:58:39;;;;;;;18.35;14.48;;;;;;;12.46;100.00;101034.97;4991339;28;20061;-70
2024/02/22 10:01:04;;;;;;;20.77;13.65;;;;;;;11.97;100.00;100961.50;4990424;28;20053;-73
2024/02/22 10:03:37;;;;;;;19.98;14.40;;;;;;;11.78;100.00;100959.81;4990302;28;20038;-70
2024/02/22 10:06:03;;;;;;;20.75;14.05;;;;;;;11.68;100.00;100908.56;4978583;28;20030;-70
2024/02/22 10:08:29;;;;;;;20.90;14.35;;;;;;;12.51;100.00;101018.72;4989975;28;20034;-70
2024/02/22 10:11:10;;;;;;;14.20;9.73;;;;;;;12.52;99.91;101023.09;4990685;28;20034;-70
2024/02/22 10:13:35;;;;;;;17.60;12.45;;;;;;;12.56;99.44;101020.69;4990623;28;20081;-69
2024/02/22 10:16:11;;;;;;;17.63;12.50;;;;;;;12.51;100.00;101013.53;4990159;28;20065;-69
2024/02/22 10:18:37;;;;;;;17.83;11.65;;;;;;;12.64;98.08;101009.72;4989944;28;20131;-70
2024/02/22 10:21:17;;;;;;;13.07;8.65;;;;;;;12.33;96.72;100928.31;4965379;28;20526;-70
2024/02/22 10:24:02;;;;;;;10.45;7.80;;;;;;;12.82;95.30;101004.31;4983249;28;20037;-69
2024/02/22 10:26:28;;;;;;;11.70;8.13;;;;;;;12.54;95.40;100907.50;4958845;28;20129;-71
2024/02/22 10:29:07;;;;;;;13.50;8.70;;;;;;;12.41;94.25;100917.41;4990069;28;20045;-69
2024/02/22 10:31:42;;;;;;;10.00;6.13;;;;;;;12.70;94.76;100974.56;4981800;28;20040;-73
2024/02/22 10:34:08;;;;;;;13.60;9.45;;;;;;;12.39;94.54;100910.41;4989921;28;20026;-71
2024/02/22 10:36:36;;;;;;;12.25;7.95;;;;;;;12.84;94.89;100975.03;4965805;28;20501;-70
2024/02/22 10:39:02;;;;;;;10.63;6.90;;;;;;;12.88;94.58;100978.63;4986704;28;20091;-71
2024/02/22 10:41:29;;;;;;;11.43;7.93;;;;;;;12.98;91.85;100961.69;4989951;28;20038;-70
2024/02/22 10:43:57;;;;;;;12.15;9.00;;;;;;;13.27;92.96;100957.50;4990295;28;20026;-71
2024/02/22 10:46:27;;;;;;;11.75;8.68;;;;;;;13.57;90.98;100951.59;4965016;28;20133;-69
2024/02/22 10:48:52;;;;;;;;;;;;;;;13.74;92.16;100946.97;4992808;28;20628;-70
2024/02/22 10:51:22;;;;;;;10.63;7.60;;;;;;;13.72;91.65;100920.97;4994133;28;19925;-70
2024/02/22 10:53:56;;;;;;;12.02;8.90;;;;;;;13.32;92.13;100857.44;4986165;28;20030;-70
2024/02/22 10:56:23;;;;;;;13.38;9.30;;;;;;;13.79;90.95;100931.53;4993558;28;20509;-70
2024/02/22 10:58:52;;;;;;;12.75;8.35;;;;;;;13.86;88.72;100931.78;4994083;28;20165;-69
2024/02/22 11:01:19;;;;;;;10.20;7.50;;;;;;;13.90;88.29;100928.44;4987843;28;20034;-70
2024/02/22 11:03:46;;;;;;;10.32;7.45;;;;;;;14.04;87.09;100915.00;4993723;28;20116;-70
2024/02/22 11:06:18;;;;;;;11.05;7.90;;;;;;;13.73;86.38;100856.97;4993578;28;20057;-71